sensor_id;sensor_type;location;lat;lon;timestamp;pressure;altitude;pressure_sealevel;temperature
34023;BMP280;20673;48.980;8.138;2023-05-01T00:00:18;100061.47;;;9.33
34023;BMP280;20673;48.980;8.138;2023-05-01T00:02:45;100059.75;;;9.33
34023;BMP280;20673;48.980;8.138;2023-05-01T00:05:11;100059.68;;;9.31
34023;BMP280;20673;48.980;8.138;2023-05-01T00:07:37;100055.65;;;9.33
34023;BMP280;20673;48.980;8.138;2023-05-01T00:10:03;100055.76;;;9.28
34023;BMP280;20673;48.980;8.138;2023-05-01T00:12:29;100052.27;;;9.27
34023;BMP280;20673;48.980;8.138;2023-05-01T00:14:56;100049.23;;;9.23
34023;BMP280;20673;48.980;8.138;2023-05-01T00:17:22;100044.29;;;9.25
34023;BMP280;20673;48.980;8.138;2023-05-01T00:19:54;100037.67;;;9.21
34023;BMP280;20673;48.980;8.138;2023-05-01T00:22:20;100038.40;;;9.19
34023;BMP280;20673;48.980;8.138;2023-05-01T00:24:46;100037.17;;;9.16
34023;BMP280;20673;48.980;8.138;2023-05-01T00:27:14;100039.15;;;9.14
34023;BMP280;20673;48.980;8.138;2023-05-01T00:29:40;100034.29;;;9.11
34023;BMP280;20673;48.980;8.138;2023-05-01T00:32:06;100029.29;;;9.07
34023;BMP280;20673;48.980;8.138;2023-05-01T00:34:32;100028.17;;;9.05
34023;BMP280;20673;48.980;8.138;2023-05-01T00:37:00;100022.70;;;9.05
34023;BMP280;20673;48.980;8.138;2023-05-01T00:39:26;100029.64;;;9.05
34023;BMP280;20673;48.980;8.138;2023-05-01T00:41:52;100026.15;;;9.03
34023;BMP280;20673;48.980;8.138;2023-05-01T00:44:19;100022.48;;;9.02
34023;BMP280;20673;48.980;8.138;2023-05-01T00:46:45;100023.95;;;9.01
34023;BMP280;20673;48.980;8.138;2023-05-01T00:49:11;100020.22;;;9.01
34023;BMP280;20673;48.980;8.138;2023-05-01T00:51:38;100010.62;;;8.99
34023;BMP280;20673;48.980;8.138;2023-05-01T00:54:06;100015.29;;;8.99
34023;BMP280;20673;48.980;8.138;2023-05-01T00:56:32;100010.95;;;8.99
34023;BMP280;20673;48.980;8.138;2023-05-01T00:58:58;100003.93;;;9.00
34023;BMP280;20673;48.980;8.138;2023-05-01T01:01:25;100000.64;;;8.98
34023;BMP280;20673;48.980;8.138;2023-05-01T01:03:51;100001.57;;;8.96
34023;BMP280;20673;48.980;8.138;2023-05-01T01:09:31;99992.39;;;8.94
34023;BMP280;20673;48.980;8.138;2023-05-01T01:15:17;99989.04;;;8.90
34023;BMP280;20673;48.980;8.138;2023-05-01T01:17:50;99982.56;;;8.90
34023;BMP280;20673;48.980;8.138;2023-05-01T01:20:48;99980.73;;;8.91
34023;BMP280;20673;48.980;8.138;2023-05-01T01:23:45;99978.14;;;8.90
34023;BMP280;20673;48.980;8.138;2023-05-01T01:35:07;99962.87;;;8.89
34023;BMP280;20673;48.980;8.138;2023-05-01T01:40:21;99966.93;;;8.96
34023;BMP280;20673;48.980;8.138;2023-05-01T01:43:04;99961.42;;;9.03
34023;BMP280;20673;48.980;8.138;2023-05-01T01:45:42;99966.51;;;9.10
34023;BMP280;20673;48.980;8.138;2023-05-01T01:48:19;99960.75;;;9.18
34023;BMP280;20673;48.980;8.138;2023-05-01T01:50:46;99964.35;;;9.22
34023;BMP280;20673;48.980;8.138;2023-05-01T01:53:16;99957.42;;;9.27
34023;BMP280;20673;48.980;8.138;2023-05-01T01:55:46;99961.07;;;9.34
34023;BMP280;20673;48.980;8.138;2023-05-01T01:58:15;99960.22;;;9.39
34023;BMP280;20673;48.980;8.138;2023-05-01T02:00:44;99956.45;;;9.44
34023;BMP280;20673;48.980;8.138;2023-05-01T02:03:13;99953.06;;;9.53
34023;BMP280;20673;48.980;8.138;2023-05-01T02:05:42;99948.17;;;9.55
34023;BMP280;20673;48.980;8.138;2023-05-01T02:08:11;99951.40;;;9.58
34023;BMP280;20673;48.980;8.138;2023-05-01T02:10:40;99951.51;;;9.60
34023;BMP280;20673;48.980;8.138;2023-05-01T02:13:08;99946.16;;;9.63
34023;BMP280;20673;48.980;8.138;2023-05-01T02:15:38;99949.22;;;9.65
34023;BMP280;20673;48.980;8.138;2023-05-01T02:18:05;99946.58;;;9.66
34023;BMP280;20673;48.980;8.138;2023-05-01T02:20:32;99950.14;;;9.68
34023;BMP280;20673;48.980;8.138;2023-05-01T02:22:59;99946.08;;;9.69
34023;BMP280;20673;48.980;8.138;2023-05-01T02:25:29;99944.43;;;9.73
34023;BMP280;20673;48.980;8.138;2023-05-01T02:28:02;99946.09;;;9.76
34023;BMP280;20673;48.980;8.138;2023-05-01T02:30:31;99944.47;;;9.75
34023;BMP280;20673;48.980;8.138;2023-05-01T02:32:57;99940.79;;;9.76
34023;BMP280;20673;48.980;8.138;2023-05-01T02:35:23;99938.83;;;9.73
34023;BMP280;20673;48.980;8.138;2023-05-01T02:37:49;99935.54;;;9.72
34023;BMP280;20673;48.980;8.138;2023-05-01T02:40:16;99933.75;;;9.71
34023;BMP280;20673;48.980;8.138;2023-05-01T02:42:44;99936.23;;;9.70
34023;BMP280;20673;48.980;8.138;2023-05-01T02:45:21;99930.55;;;9.71
34023;BMP280;20673;48.980;8.138;2023-05-01T02:47:52;99930.98;;;9.72
34023;BMP280;20673;48.980;8.138;2023-05-01T02:50:21;99926.81;;;9.76
34023;BMP280;20673;48.980;8.138;2023-05-01T02:52:48;99923.65;;;9.76
34023;BMP280;20673;48.980;8.138;2023-05-01T02:55:16;99923.68;;;9.76
34023;BMP280;20673;48.980;8.138;2023-05-01T02:57:43;99917.85;;;9.74
34023;BMP280;20673;48.980;8.138;2023-05-01T03:00:10;99922.93;;;9.72
34023;BMP280;20673;48.980;8.138;2023-05-01T03:02:39;99917.72;;;9.73
34023;BMP280;20673;48.980;8.138;2023-05-01T03:05:06;99909.95;;;9.75
34023;BMP280;20673;48.980;8.138;2023-05-01T03:07:32;99911.31;;;9.72
34023;BMP280;20673;48.980;8.138;2023-05-01T03:10:04;99911.23;;;9.74
34023;BMP280;20673;48.980;8.138;2023-05-01T03:12:30;99908.41;;;9.78
34023;BMP280;20673;48.980;8.138;2023-05-01T03:14:57;99905.21;;;9.78
34023;BMP280;20673;48.980;8.138;2023-05-01T03:17:23;99903.66;;;9.79
34023;BMP280;20673;48.980;8.138;2023-05-01T03:19:50;99902.11;;;9.82
34023;BMP280;20673;48.980;8.138;2023-05-01T03:22:16;99897.22;;;9.82
34023;BMP280;20673;48.980;8.138;2023-05-01T03:24:43;99902.01;;;9.87
34023;BMP280;20673;48.980;8.138;2023-05-01T03:27:09;99897.28;;;9.91
34023;BMP280;20673;48.980;8.138;2023-05-01T03:29:35;99897.18;;;9.93
34023;BMP280;20673;48.980;8.138;2023-05-01T03:32:05;99892.76;;;9.94
34023;BMP280;20673;48.980;8.138;2023-05-01T03:34:31;99891.64;;;9.97
34023;BMP280;20673;48.980;8.138;2023-05-01T03:36:57;99887.45;;;10.01
34023;BMP280;20673;48.980;8.138;2023-05-01T03:39:23;99890.39;;;10.01
34023;BMP280;20673;48.980;8.138;2023-05-01T03:41:49;99888.55;;;10.03
34023;BMP280;20673;48.980;8.138;2023-05-01T03:44:15;99886.98;;;10.07
34023;BMP280;20673;48.980;8.138;2023-05-01T03:46:41;99886.81;;;10.07
34023;BMP280;20673;48.980;8.138;2023-05-01T03:49:08;99893.61;;;10.10
34023;BMP280;20673;48.980;8.138;2023-05-01T03:51:34;99889.44;;;10.12
34023;BMP280;20673;48.980;8.138;2023-05-01T03:54:00;99890.47;;;10.14
34023;BMP280;20673;48.980;8.138;2023-05-01T03:56:27;99888.84;;;10.13
34023;BMP280;20673;48.980;8.138;2023-05-01T03:58:53;99888.81;;;10.14
34023;BMP280;20673;48.980;8.138;2023-05-01T04:01:19;99894.31;;;10.16
34023;BMP280;20673;48.980;8.138;2023-05-01T04:03:45;99885.95;;;10.14
34023;BMP280;20673;48.980;8.138;2023-05-01T04:06:13;99888.37;;;10.15
34023;BMP280;20673;48.980;8.138;2023-05-01T04:08:39;99885.26;;;10.16
34023;BMP280;20673;48.980;8.138;2023-05-01T04:11:05;99885.36;;;10.21
34023;BMP280;20673;48.980;8.138;2023-05-01T04:13:31;99887.29;;;10.20
34023;BMP280;20673;48.980;8.138;2023-05-01T04:15:57;99885.39;;;10.20
34023;BMP280;20673;48.980;8.138;2023-05-01T04:18:24;99882.00;;;10.19
34023;BMP280;20673;48.980;8.138;2023-05-01T04:20:50;99888.15;;;10.19
34023;BMP280;20673;48.980;8.138;2023-05-01T04:23:17;99884.92;;;10.20
34023;BMP280;20673;48.980;8.138;2023-05-01T04:25:43;99883.74;;;10.21
34023;BMP280;20673;48.980;8.138;2023-05-01T04:28:12;99885.71;;;10.23
34023;BMP280;20673;48.980;8.138;2023-05-01T04:30:38;99883.52;;;10.25
34023;BMP280;20673;48.980;8.138;2023-05-01T04:33:04;99887.86;;;10.26
34023;BMP280;20673;48.980;8.138;2023-05-01T04:35:32;99891.04;;;10.28
34023;BMP280;20673;48.980;8.138;2023-05-01T04:37:59;99890.41;;;10.32
34023;BMP280;20673;48.980;8.138;2023-05-01T04:40:25;99893.75;;;10.36
34023;BMP280;20673;48.980;8.138;2023-05-01T04:42:51;99896.92;;;10.38
34023;BMP280;20673;48.980;8.138;2023-05-01T04:45:18;99898.17;;;10.46
34023;BMP280;20673;48.980;8.138;2023-05-01T04:47:44;99898.22;;;10.48
34023;BMP280;20673;48.980;8.138;2023-05-01T04:50:10;99896.13;;;10.54
34023;BMP280;20673;48.980;8.138;2023-05-01T04:52:36;99898.18;;;10.59
34023;BMP280;20673;48.980;8.138;2023-05-01T04:55:03;99900.59;;;10.64
34023;BMP280;20673;48.980;8.138;2023-05-01T04:57:29;99900.09;;;10.72
34023;BMP280;20673;48.980;8.138;2023-05-01T04:59:55;99902.23;;;10.79
34023;BMP280;20673;48.980;8.138;2023-05-01T05:02:21;99905.40;;;10.91
34023;BMP280;20673;48.980;8.138;2023-05-01T05:04:47;99906.65;;;11.00
34023;BMP280;20673;48.980;8.138;2023-05-01T05:07:14;99908.79;;;11.09
34023;BMP280;20673;48.980;8.138;2023-05-01T05:09:40;99909.84;;;11.20
34023;BMP280;20673;48.980;8.138;2023-05-01T05:12:06;99903.92;;;11.29
34023;BMP280;20673;48.980;8.138;2023-05-01T05:14:32;99911.22;;;11.45
34023;BMP280;20673;48.980;8.138;2023-05-01T05:16:58;99907.50;;;11.50
34023;BMP280;20673;48.980;8.138;2023-05-01T05:19:25;99908.52;;;11.60
34023;BMP280;20673;48.980;8.138;2023-05-01T05:21:51;99909.90;;;11.68
34023;BMP280;20673;48.980;8.138;2023-05-01T05:24:17;99907.02;;;11.75
34023;BMP280;20673;48.980;8.138;2023-05-01T05:26:43;99913.70;;;11.78
34023;BMP280;20673;48.980;8.138;2023-05-01T05:29:09;99912.00;;;11.81
34023;BMP280;20673;48.980;8.138;2023-05-01T05:31:35;99912.04;;;11.79
34023;BMP280;20673;48.980;8.138;2023-05-01T05:34:02;99916.45;;;11.77
34023;BMP280;20673;48.980;8.138;2023-05-01T05:36:28;99920.75;;;11.82
34023;BMP280;20673;48.980;8.138;2023-05-01T05:38:54;99920.93;;;11.84
34023;BMP280;20673;48.980;8.138;2023-05-01T05:41:20;99912.89;;;11.81
34023;BMP280;20673;48.980;8.138;2023-05-01T05:43:46;99920.33;;;11.81
34023;BMP280;20673;48.980;8.138;2023-05-01T05:46:13;99919.87;;;11.80
34023;BMP280;20673;48.980;8.138;2023-05-01T05:48:39;99918.22;;;11.81
34023;BMP280;20673;48.980;8.138;2023-05-01T05:51:05;99922.52;;;11.78
34023;BMP280;20673;48.980;8.138;2023-05-01T05:53:31;99919.11;;;11.77
34023;BMP280;20673;48.980;8.138;2023-05-01T05:55:57;99919.79;;;11.83
34023;BMP280;20673;48.980;8.138;2023-05-01T05:58:23;99914.97;;;11.81
34023;BMP280;20673;48.980;8.138;2023-05-01T06:00:49;99914.05;;;11.81
34023;BMP280;20673;48.980;8.138;2023-05-01T06:03:17;99917.28;;;11.88
34023;BMP280;20673;48.980;8.138;2023-05-01T06:05:44;99919.39;;;11.91
34023;BMP280;20673;48.980;8.138;2023-05-01T06:08:10;99920.43;;;12.03
34023;BMP280;20673;48.980;8.138;2023-05-01T06:10:38;99921.42;;;12.10
34023;BMP280;20673;48.980;8.138;2023-05-01T06:13:06;99927.39;;;12.20
34023;BMP280;20673;48.980;8.138;2023-05-01T06:15:38;99930.17;;;12.33
34023;BMP280;20673;48.980;8.138;2023-05-01T06:18:05;99923.37;;;12.43
34023;BMP280;20673;48.980;8.138;2023-05-01T06:20:31;99921.68;;;12.53
34023;BMP280;20673;48.980;8.138;2023-05-01T06:22:57;99918.12;;;12.58
34023;BMP280;20673;48.980;8.138;2023-05-01T06:25:23;99913.22;;;12.74
34023;BMP280;20673;48.980;8.138;2023-05-01T06:27:50;99916.56;;;12.84
34023;BMP280;20673;48.980;8.138;2023-05-01T06:30:17;99915.98;;;12.89
34023;BMP280;20673;48.980;8.138;2023-05-01T06:32:47;99918.83;;;12.91
34023;BMP280;20673;48.980;8.138;2023-05-01T06:35:14;99919.53;;;12.98
34023;BMP280;20673;48.980;8.138;2023-05-01T06:37:40;99921.66;;;13.06
34023;BMP280;20673;48.980;8.138;2023-05-01T06:40:09;99925.08;;;13.07
34023;BMP280;20673;48.980;8.138;2023-05-01T06:42:37;99931.22;;;13.18
34023;BMP280;20673;48.980;8.138;2023-05-01T06:45:05;99932.72;;;13.18
34023;BMP280;20673;48.980;8.138;2023-05-01T06:47:31;99931.31;;;13.21
34023;BMP280;20673;48.980;8.138;2023-05-01T06:49:58;99929.17;;;13.30
34023;BMP280;20673;48.980;8.138;2023-05-01T06:52:24;99933.25;;;13.36
34023;BMP280;20673;48.980;8.138;2023-05-01T06:54:50;99936.29;;;13.40
34023;BMP280;20673;48.980;8.138;2023-05-01T06:57:16;99940.38;;;13.50
34023;BMP280;20673;48.980;8.138;2023-05-01T06:59:42;99946.83;;;13.57
34023;BMP280;20673;48.980;8.138;2023-05-01T07:02:08;99950.42;;;13.65
34023;BMP280;20673;48.980;8.138;2023-05-01T07:04:35;99940.16;;;13.75
34023;BMP280;20673;48.980;8.138;2023-05-01T07:07:01;99940.21;;;13.74
34023;BMP280;20673;48.980;8.138;2023-05-01T07:09:28;99941.70;;;13.75
34023;BMP280;20673;48.980;8.138;2023-05-01T07:11:54;99947.93;;;13.75
34023;BMP280;20673;48.980;8.138;2023-05-01T07:14:22;99945.04;;;13.78
34023;BMP280;20673;48.980;8.138;2023-05-01T07:16:48;99941.04;;;13.76
34023;BMP280;20673;48.980;8.138;2023-05-01T07:19:15;99942.70;;;13.80
34023;BMP280;20673;48.980;8.138;2023-05-01T07:21:41;99941.01;;;13.83
34023;BMP280;20673;48.980;8.138;2023-05-01T07:24:07;99943.87;;;13.91
34023;BMP280;20673;48.980;8.138;2023-05-01T07:26:33;99943.30;;;14.00
34023;BMP280;20673;48.980;8.138;2023-05-01T07:28:59;99947.92;;;13.94
34023;BMP280;20673;48.980;8.138;2023-05-01T07:31:25;99944.04;;;14.00
34023;BMP280;20673;48.980;8.138;2023-05-01T07:33:51;99943.90;;;14.09
34023;BMP280;20673;48.980;8.138;2023-05-01T07:36:18;99934.83;;;14.20
34023;BMP280;20673;48.980;8.138;2023-05-01T07:38:45;99936.68;;;14.25
34023;BMP280;20673;48.980;8.138;2023-05-01T07:41:11;99936.08;;;14.30
34023;BMP280;20673;48.980;8.138;2023-05-01T07:43:37;99939.56;;;14.34
34023;BMP280;20673;48.980;8.138;2023-05-01T07:46:03;99940.33;;;14.42
34023;BMP280;20673;48.980;8.138;2023-05-01T07:48:31;99938.73;;;14.52
34023;BMP280;20673;48.980;8.138;2023-05-01T07:51:02;99942.00;;;14.58
34023;BMP280;20673;48.980;8.138;2023-05-01T07:53:28;99940.76;;;14.75
34023;BMP280;20673;48.980;8.138;2023-05-01T07:56:09;99941.33;;;14.90
34023;BMP280;20673;48.980;8.138;2023-05-01T07:58:36;99935.83;;;15.04
34023;BMP280;20673;48.980;8.138;2023-05-01T08:01:04;99935.51;;;14.92
34023;BMP280;20673;48.980;8.138;2023-05-01T08:03:31;99940.00;;;15.00
34023;BMP280;20673;48.980;8.138;2023-05-01T08:05:57;99936.23;;;15.16
34023;BMP280;20673;48.980;8.138;2023-05-01T08:08:23;99939.28;;;15.28
34023;BMP280;20673;48.980;8.138;2023-05-01T08:10:51;99944.17;;;15.24
34023;BMP280;20673;48.980;8.138;2023-05-01T08:13:17;99942.51;;;15.37
34023;BMP280;20673;48.980;8.138;2023-05-01T08:15:46;99948.01;;;15.47
34023;BMP280;20673;48.980;8.138;2023-05-01T08:18:12;99949.95;;;15.47
34023;BMP280;20673;48.980;8.138;2023-05-01T08:20:40;99952.22;;;15.50
34023;BMP280;20673;48.980;8.138;2023-05-01T08:23:06;99956.73;;;15.64
34023;BMP280;20673;48.980;8.138;2023-05-01T08:25:33;99954.06;;;15.51
34023;BMP280;20673;48.980;8.138;2023-05-01T08:27:59;99955.09;;;15.57
34023;BMP280;20673;48.980;8.138;2023-05-01T08:30:25;99951.02;;;15.86
34023;BMP280;20673;48.980;8.138;2023-05-01T08:32:51;99950.45;;;15.85
34023;BMP280;20673;48.980;8.138;2023-05-01T08:35:17;99946.75;;;16.01
34023;BMP280;20673;48.980;8.138;2023-05-01T08:37:43;99943.42;;;16.26
34023;BMP280;20673;48.980;8.138;2023-05-01T08:40:10;99941.00;;;16.52
34023;BMP280;20673;48.980;8.138;2023-05-01T08:42:37;99941.99;;;16.90
34023;BMP280;20673;48.980;8.138;2023-05-01T08:45:09;99938.23;;;16.86
34023;BMP280;20673;48.980;8.138;2023-05-01T08:47:39;99944.49;;;16.80
34023;BMP280;20673;48.980;8.138;2023-05-01T08:50:10;99937.87;;;16.77
34023;BMP280;20673;48.980;8.138;2023-05-01T08:52:40;99946.05;;;16.74
34023;BMP280;20673;48.980;8.138;2023-05-01T08:55:13;99939.62;;;16.74
34023;BMP280;20673;48.980;8.138;2023-05-01T08:57:47;99944.04;;;16.59
34023;BMP280;20673;48.980;8.138;2023-05-01T09:00:19;99938.34;;;16.30
34023;BMP280;20673;48.980;8.138;2023-05-01T09:02:47;99947.37;;;16.07
34023;BMP280;20673;48.980;8.138;2023-05-01T09:05:16;99939.25;;;16.22
34023;BMP280;20673;48.980;8.138;2023-05-01T09:07:44;99940.30;;;16.27
34023;BMP280;20673;48.980;8.138;2023-05-01T09:10:13;99949.37;;;16.26
34023;BMP280;20673;48.980;8.138;2023-05-01T09:12:41;99948.66;;;16.27
34023;BMP280;20673;48.980;8.138;2023-05-01T09:15:11;99943.58;;;16.49
34023;BMP280;20673;48.980;8.138;2023-05-01T09:17:39;99941.43;;;16.59
34023;BMP280;20673;48.980;8.138;2023-05-01T09:20:06;99945.17;;;16.71
34023;BMP280;20673;48.980;8.138;2023-05-01T09:22:33;99942.53;;;16.93
34023;BMP280;20673;48.980;8.138;2023-05-01T09:25:00;99945.79;;;16.77
34023;BMP280;20673;48.980;8.138;2023-05-01T09:27:27;99942.18;;;16.85
34023;BMP280;20673;48.980;8.138;2023-05-01T09:29:53;99945.41;;;16.97
34023;BMP280;20673;48.980;8.138;2023-05-01T09:32:25;99949.43;;;16.81
34023;BMP280;20673;48.980;8.138;2023-05-01T09:35:10;99952.26;;;16.96
34023;BMP280;20673;48.980;8.138;2023-05-01T09:37:37;99948.86;;;16.99
34023;BMP280;20673;48.980;8.138;2023-05-01T09:40:11;99952.20;;;17.13
34023;BMP280;20673;48.980;8.138;2023-05-01T09:42:49;99947.12;;;17.08
34023;BMP280;20673;48.980;8.138;2023-05-01T09:45:20;99951.00;;;17.35
34023;BMP280;20673;48.980;8.138;2023-05-01T09:47:48;99952.86;;;17.66
34023;BMP280;20673;48.980;8.138;2023-05-01T09:50:34;99951.48;;;17.79
34023;BMP280;20673;48.980;8.138;2023-05-01T09:53:01;99946.71;;;17.82
34023;BMP280;20673;48.980;8.138;2023-05-01T09:55:29;99947.89;;;17.93
34023;BMP280;20673;48.980;8.138;2023-05-01T09:57:56;99948.04;;;18.04
34023;BMP280;20673;48.980;8.138;2023-05-01T10:00:24;99947.18;;;18.20
34023;BMP280;20673;48.980;8.138;2023-05-01T10:02:51;99940.89;;;18.00
34023;BMP280;20673;48.980;8.138;2023-05-01T10:05:18;99951.56;;;18.34
34023;BMP280;20673;48.980;8.138;2023-05-01T10:08:00;99933.84;;;18.44
34023;BMP280;20673;48.980;8.138;2023-05-01T10:10:27;99942.62;;;18.92
34023;BMP280;20673;48.980;8.138;2023-05-01T10:12:53;99939.70;;;18.94
34023;BMP280;20673;48.980;8.138;2023-05-01T10:15:20;99938.86;;;19.11
34023;BMP280;20673;48.980;8.138;2023-05-01T10:17:49;99939.09;;;19.48
34023;BMP280;20673;48.980;8.138;2023-05-01T10:20:18;99930.26;;;18.94
34023;BMP280;20673;48.980;8.138;2023-05-01T10:22:44;99924.83;;;18.87
34023;BMP280;20673;48.980;8.138;2023-05-01T10:25:12;99927.41;;;18.72
34023;BMP280;20673;48.980;8.138;2023-05-01T10:27:39;99924.40;;;18.58
34023;BMP280;20673;48.980;8.138;2023-05-01T10:30:07;99924.75;;;19.23
34023;BMP280;20673;48.980;8.138;2023-05-01T10:32:35;99933.78;;;19.74
34023;BMP280;20673;48.980;8.138;2023-05-01T10:35:18;99929.67;;;19.51
34023;BMP280;20673;48.980;8.138;2023-05-01T10:37:48;99924.04;;;19.49
34023;BMP280;20673;48.980;8.138;2023-05-01T10:40:42;99926.03;;;19.50
34023;BMP280;20673;48.980;8.138;2023-05-01T10:43:29;99920.56;;;19.50
34023;BMP280;20673;48.980;8.138;2023-05-01T10:51:26;99911.70;;;19.63
34023;BMP280;20673;48.980;8.138;2023-05-01T10:56:45;99909.93;;;19.42
34023;BMP280;20673;48.980;8.138;2023-05-01T10:59:11;99906.86;;;19.28
34023;BMP280;20673;48.980;8.138;2023-05-01T11:01:41;99902.38;;;19.34
34023;BMP280;20673;48.980;8.138;2023-05-01T11:15:01;99907.84;;;20.73
34023;BMP280;20673;48.980;8.138;2023-05-01T11:17:45;99901.99;;;21.26
34023;BMP280;20673;48.980;8.138;2023-05-01T11:22:58;99901.95;;;20.99
34023;BMP280;20673;48.980;8.138;2023-05-01T11:25:27;99893.15;;;20.67
34023;BMP280;20673;48.980;8.138;2023-05-01T11:28:00;99890.48;;;20.40
34023;BMP280;20673;48.980;8.138;2023-05-01T11:30:40;99882.90;;;20.32
34023;BMP280;20673;48.980;8.138;2023-05-01T11:33:07;99889.51;;;20.16
34023;BMP280;20673;48.980;8.138;2023-05-01T11:35:33;99885.63;;;20.02
34023;BMP280;20673;48.980;8.138;2023-05-01T11:37:59;99882.89;;;20.25
34023;BMP280;20673;48.980;8.138;2023-05-01T11:40:32;99880.36;;;20.08
34023;BMP280;20673;48.980;8.138;2023-05-01T11:43:07;99881.50;;;20.12
34023;BMP280;20673;48.980;8.138;2023-05-01T11:45:35;99874.29;;;20.29
34023;BMP280;20673;48.980;8.138;2023-05-01T11:48:02;99870.25;;;20.30
34023;BMP280;20673;48.980;8.138;2023-05-01T11:50:37;99866.22;;;20.47
34023;BMP280;20673;48.980;8.138;2023-05-01T11:53:13;99869.43;;;20.40
34023;BMP280;20673;48.980;8.138;2023-05-01T11:55:42;99868.22;;;20.47
34023;BMP280;20673;48.980;8.138;2023-05-01T11:58:08;99864.82;;;20.62
34023;BMP280;20673;48.980;8.138;2023-05-01T12:00:38;99861.68;;;20.56
34023;BMP280;20673;48.980;8.138;2023-05-01T12:03:11;99858.29;;;20.50
34023;BMP280;20673;48.980;8.138;2023-05-01T12:05:41;99854.40;;;20.40
34023;BMP280;20673;48.980;8.138;2023-05-01T12:08:14;99858.45;;;20.40
34023;BMP280;20673;48.980;8.138;2023-05-01T12:10:45;99857.20;;;20.50
34023;BMP280;20673;48.980;8.138;2023-05-01T12:13:13;99860.46;;;20.47
34023;BMP280;20673;48.980;8.138;2023-05-01T12:15:45;99857.26;;;20.29
34023;BMP280;20673;48.980;8.138;2023-05-01T12:18:13;99862.60;;;20.46
34023;BMP280;20673;48.980;8.138;2023-05-01T12:20:49;99859.86;;;20.50
34023;BMP280;20673;48.980;8.138;2023-05-01T12:23:19;99853.22;;;20.60
34023;BMP280;20673;48.980;8.138;2023-05-01T12:25:47;99855.37;;;20.71
34023;BMP280;20673;48.980;8.138;2023-05-01T12:28:17;99855.95;;;20.75
34023;BMP280;20673;48.980;8.138;2023-05-01T12:30:46;99855.03;;;20.82
34023;BMP280;20673;48.980;8.138;2023-05-01T12:33:17;99862.65;;;20.96
34023;BMP280;20673;48.980;8.138;2023-05-01T12:35:46;99861.90;;;21.20
34023;BMP280;20673;48.980;8.138;2023-05-01T12:38:19;99856.50;;;21.09
34023;BMP280;20673;48.980;8.138;2023-05-01T12:40:58;99855.77;;;21.29
34023;BMP280;20673;48.980;8.138;2023-05-01T12:43:33;99855.99;;;21.12
34023;BMP280;20673;48.980;8.138;2023-05-01T12:46:02;99853.67;;;20.98
34023;BMP280;20673;48.980;8.138;2023-05-01T12:48:30;99849.42;;;20.84
34023;BMP280;20673;48.980;8.138;2023-05-01T12:50:59;99854.01;;;20.74
34023;BMP280;20673;48.980;8.138;2023-05-01T12:53:27;99853.06;;;20.89
34023;BMP280;20673;48.980;8.138;2023-05-01T12:55:56;99857.74;;;21.07
34023;BMP280;20673;48.980;8.138;2023-05-01T12:58:35;99860.54;;;21.18
34023;BMP280;20673;48.980;8.138;2023-05-01T13:01:02;99858.97;;;21.01
34023;BMP280;20673;48.980;8.138;2023-05-01T13:03:29;99855.48;;;21.15
34023;BMP280;20673;48.980;8.138;2023-05-01T13:06:02;99854.22;;;21.16
34023;BMP280;20673;48.980;8.138;2023-05-01T13:08:31;99854.40;;;21.16
34023;BMP280;20673;48.980;8.138;2023-05-01T13:11:08;99855.13;;;21.39
34023;BMP280;20673;48.980;8.138;2023-05-01T13:13:32;99847.79;;;21.45
34023;BMP280;20673;48.980;8.138;2023-05-01T13:16:15;99843.51;;;21.40
34023;BMP280;20673;48.980;8.138;2023-05-01T13:18:50;99842.47;;;21.34
34023;BMP280;20673;48.980;8.138;2023-05-01T13:21:20;99839.70;;;21.27
34023;BMP280;20673;48.980;8.138;2023-05-01T13:24:00;99835.69;;;21.09
34023;BMP280;20673;48.980;8.138;2023-05-01T13:26:30;99835.76;;;21.18
34023;BMP280;20673;48.980;8.138;2023-05-01T13:28:59;99834.67;;;21.14
34023;BMP280;20673;48.980;8.138;2023-05-01T13:31:26;99840.68;;;21.44
34023;BMP280;20673;48.980;8.138;2023-05-01T13:33:54;99838.90;;;21.91
34023;BMP280;20673;48.980;8.138;2023-05-01T13:36:22;99830.89;;;22.49
34023;BMP280;20673;48.980;8.138;2023-05-01T13:38:53;99823.54;;;22.46
34023;BMP280;20673;48.980;8.138;2023-05-01T13:41:22;99820.65;;;22.17
34023;BMP280;20673;48.980;8.138;2023-05-01T13:43:51;99829.25;;;21.60
34023;BMP280;20673;48.980;8.138;2023-05-01T13:46:21;99828.05;;;21.49
34023;BMP280;20673;48.980;8.138;2023-05-01T13:48:48;99829.13;;;21.06
34023;BMP280;20673;48.980;8.138;2023-05-01T13:51:20;99823.23;;;20.63
34023;BMP280;20673;48.980;8.138;2023-05-01T13:53:47;99828.50;;;20.26
34023;BMP280;20673;48.980;8.138;2023-05-01T13:56:13;99834.51;;;20.20
34023;BMP280;20673;48.980;8.138;2023-05-01T13:58:40;99833.86;;;20.04
34023;BMP280;20673;48.980;8.138;2023-05-01T14:01:19;99835.29;;;19.73
34023;BMP280;20673;48.980;8.138;2023-05-01T14:03:47;99841.70;;;19.56
34023;BMP280;20673;48.980;8.138;2023-05-01T14:06:15;99851.90;;;19.30
34023;BMP280;20673;48.980;8.138;2023-05-01T14:08:43;99859.98;;;18.99
34023;BMP280;20673;48.980;8.138;2023-05-01T14:11:11;99868.06;;;18.56
34023;BMP280;20673;48.980;8.138;2023-05-01T14:13:43;99878.84;;;18.20
34023;BMP280;20673;48.980;8.138;2023-05-01T14:16:22;99916.86;;;17.33
34023;BMP280;20673;48.980;8.138;2023-05-01T14:18:54;99915.25;;;15.96
34023;BMP280;20673;48.980;8.138;2023-05-01T14:21:25;99873.68;;;15.10
34023;BMP280;20673;48.980;8.138;2023-05-01T14:23:55;99851.98;;;14.74
34023;BMP280;20673;48.980;8.138;2023-05-01T14:26:22;99841.29;;;14.55
34023;BMP280;20673;48.980;8.138;2023-05-01T14:28:49;99832.31;;;14.65
34023;BMP280;20673;48.980;8.138;2023-05-01T14:31:25;99832.02;;;14.81
34023;BMP280;20673;48.980;8.138;2023-05-01T14:33:58;99828.15;;;14.94
34023;BMP280;20673;48.980;8.138;2023-05-01T14:36:26;99833.98;;;15.22
34023;BMP280;20673;48.980;8.138;2023-05-01T14:39:00;99835.70;;;15.53
34023;BMP280;20673;48.980;8.138;2023-05-01T14:41:26;99834.99;;;15.92
34023;BMP280;20673;48.980;8.138;2023-05-01T14:43:54;99834.96;;;16.41
34023;BMP280;20673;48.980;8.138;2023-05-01T14:46:28;99836.23;;;17.02
34023;BMP280;20673;48.980;8.138;2023-05-01T14:48:55;99837.43;;;17.55
34023;BMP280;20673;48.980;8.138;2023-05-01T14:51:22;99833.40;;;17.78
34023;BMP280;20673;48.980;8.138;2023-05-01T14:53:48;99834.28;;;18.12
34023;BMP280;20673;48.980;8.138;2023-05-01T14:56:17;99830.64;;;18.07
34023;BMP280;20673;48.980;8.138;2023-05-01T15:01:32;99834.98;;;17.99